sensor_id;sensor_type;location;lat;lon;timestamp;temperature;humidity
31207;DHT22;17834;52.992;8.856;2023-06-14T00:00:36;14.90;99.90
31207;DHT22;17834;52.992;8.856;2023-06-14T00:03:06;14.80;99.90
31207;DHT22;17834;52.992;8.856;2023-06-14T00:05:33;14.80;99.90
31207;DHT22;17834;52.992;8.856;2023-06-14T00:08:03;14.80;99.90
31207;DHT22;17834;52.992;8.856;2023-06-14T00:10:32;14.80;99.90
31207;DHT22;17834;52.992;8.856;2023-06-14T00:13:01;14.70;99.90
31207;DHT22;17834;52.992;8.856;2023-06-14T00:15:26;14.70;99.90
31207;DHT22;17834;52.992;8.856;2023-06-14T00:17:51;14.70;99.90
31207;DHT22;17834;52.992;8.856;2023-06-14T00:20:17;14.60;99.90
31207;DHT22;17834;52.992;8.856;2023-06-14T00:22:43;14.60;99.90
31207;DHT22;17834;52.992;8.856;2023-06-14T00:25:08;14.50;99.90
31207;DHT22;17834;52.992;8.856;2023-06-14T00:27:34;14.60;99.90
31207;DHT22;17834;52.992;8.856;2023-06-14T00:29:59;14.60;99.90
31207;DHT22;17834;52.992;8.856;2023-06-14T00:32:25;14.50;99.90
31207;DHT22;17834;52.992;8.856;2023-06-14T00:34:51;14.50;99.90
31207;DHT22;17834;52.992;8.856;2023-06-14T00:37:17;14.40;99.90
31207;DHT22;17834;52.992;8.856;2023-06-14T00:39:42;14.40;99.90
31207;DHT22;17834;52.992;8.856;2023-06-14T00:42:08;14.40;99.90
31207;DHT22;17834;52.992;8.856;2023-06-14T00:44:33;14.30;99.90
31207;DHT22;17834;52.992;8.856;2023-06-14T00:46:59;14.30;99.90
31207;DHT22;17834;52.992;8.856;2023-06-14T00:49:24;14.30;99.90
31207;DHT22;17834;52.992;8.856;2023-06-14T00:51:50;14.20;99.90
31207;DHT22;17834;52.992;8.856;2023-06-14T00:54:16;14.20;99.90
31207;DHT22;17834;52.992;8.856;2023-06-14T00:56:44;14.10;99.90
31207;DHT22;17834;52.992;8.856;2023-06-14T00:59:10;14.10;99.90
31207;DHT22;17834;52.992;8.856;2023-06-14T01:01:36;14.00;99.90
31207;DHT22;17834;52.992;8.856;2023-06-14T01:04:03;13.90;99.90
31207;DHT22;17834;52.992;8.856;2023-06-14T01:06:37;13.90;99.90
31207;DHT22;17834;52.992;8.856;2023-06-14T01:09:18;13.80;99.90
31207;DHT22;17834;52.992;8.856;2023-06-14T01:12:09;13.80;99.90
31207;DHT22;17834;52.992;8.856;2023-06-14T01:14:37;13.70;99.90
31207;DHT22;17834;52.992;8.856;2023-06-14T01:17:03;13.70;99.90
31207;DHT22;17834;52.992;8.856;2023-06-14T01:19:30;13.70;99.90
31207;DHT22;17834;52.992;8.856;2023-06-14T01:21:57;13.70;99.90
31207;DHT22;17834;52.992;8.856;2023-06-14T01:24:23;13.70;99.90
31207;DHT22;17834;52.992;8.856;2023-06-14T01:26:52;13.70;99.90
31207;DHT22;17834;52.992;8.856;2023-06-14T01:29:22;13.60;99.90
31207;DHT22;17834;52.992;8.856;2023-06-14T01:31:47;13.50;99.90
31207;DHT22;17834;52.992;8.856;2023-06-14T01:34:14;13.50;99.90
31207;DHT22;17834;52.992;8.856;2023-06-14T01:36:41;13.40;99.90
31207;DHT22;17834;52.992;8.856;2023-06-14T01:39:13;13.40;99.90
31207;DHT22;17834;52.992;8.856;2023-06-14T01:41:40;13.30;99.90
31207;DHT22;17834;52.992;8.856;2023-06-14T01:44:06;13.30;99.90
31207;DHT22;17834;52.992;8.856;2023-06-14T01:46:32;13.20;99.90
31207;DHT22;17834;52.992;8.856;2023-06-14T01:48:57;13.10;99.90
31207;DHT22;17834;52.992;8.856;2023-06-14T01:51:23;13.10;99.90
31207;DHT22;17834;52.992;8.856;2023-06-14T01:53:49;13.00;99.90
31207;DHT22;17834;52.992;8.856;2023-06-14T01:56:14;13.10;99.90
31207;DHT22;17834;52.992;8.856;2023-06-14T01:58:40;13.00;99.90
31207;DHT22;17834;52.992;8.856;2023-06-14T02:01:06;12.90;99.90
31207;DHT22;17834;52.992;8.856;2023-06-14T02:03:32;12.90;99.90
31207;DHT22;17834;52.992;8.856;2023-06-14T02:05:58;12.90;99.90
31207;DHT22;17834;52.992;8.856;2023-06-14T02:08:23;12.80;99.90
31207;DHT22;17834;52.992;8.856;2023-06-14T02:10:49;12.70;99.90
31207;DHT22;17834;52.992;8.856;2023-06-14T02:13:14;12.70;99.90
31207;DHT22;17834;52.992;8.856;2023-06-14T02:15:40;12.60;99.90
31207;DHT22;17834;52.992;8.856;2023-06-14T02:18:09;12.50;99.90
31207;DHT22;17834;52.992;8.856;2023-06-14T02:20:35;12.50;99.90
31207;DHT22;17834;52.992;8.856;2023-06-14T02:23:01;12.40;99.90
31207;DHT22;17834;52.992;8.856;2023-06-14T02:25:26;12.40;99.90
31207;DHT22;17834;52.992;8.856;2023-06-14T02:27:53;12.40;99.90
31207;DHT22;17834;52.992;8.856;2023-06-14T02:30:20;12.40;99.90
31207;DHT22;17834;52.992;8.856;2023-06-14T02:32:46;12.40;99.90
31207;DHT22;17834;52.992;8.856;2023-06-14T02:35:14;12.40;99.90
31207;DHT22;17834;52.992;8.856;2023-06-14T02:37:39;12.40;99.90
31207;DHT22;17834;52.992;8.856;2023-06-14T02:40:05;12.40;99.90
31207;DHT22;17834;52.992;8.856;2023-06-14T02:42:31;12.40;99.90
31207;DHT22;17834;52.992;8.856;2023-06-14T02:44:57;12.40;99.90
31207;DHT22;17834;52.992;8.856;2023-06-14T02:47:22;12.40;99.90
31207;DHT22;17834;52.992;8.856;2023-06-14T02:49:48;12.40;99.90
31207;DHT22;17834;52.992;8.856;2023-06-14T02:52:13;12.40;99.90
31207;DHT22;17834;52.992;8.856;2023-06-14T02:54:39;12.50;99.90
31207;DHT22;17834;52.992;8.856;2023-06-14T02:57:05;12.50;99.90
31207;DHT22;17834;52.992;8.856;2023-06-14T02:59:32;12.50;99.90
31207;DHT22;17834;52.992;8.856;2023-06-14T03:01:57;12.50;99.90
31207;DHT22;17834;52.992;8.856;2023-06-14T03:04:24;12.50;99.90
31207;DHT22;17834;52.992;8.856;2023-06-14T03:06:51;12.60;99.90
31207;DHT22;17834;52.992;8.856;2023-06-14T03:09:17;12.60;99.90
31207;DHT22;17834;52.992;8.856;2023-06-14T03:11:42;12.60;99.90
31207;DHT22;17834;52.992;8.856;2023-06-14T03:14:08;12.60;99.90
31207;DHT22;17834;52.992;8.856;2023-06-14T03:16:34;12.60;99.90
31207;DHT22;17834;52.992;8.856;2023-06-14T03:18:59;12.60;99.90
31207;DHT22;17834;52.992;8.856;2023-06-14T03:21:25;12.60;99.90
31207;DHT22;17834;52.992;8.856;2023-06-14T03:23:51;12.60;99.90
31207;DHT22;17834;52.992;8.856;2023-06-14T03:26:18;12.60;99.90
31207;DHT22;17834;52.992;8.856;2023-06-14T03:28:44;12.60;99.90
31207;DHT22;17834;52.992;8.856;2023-06-14T03:31:11;12.60;99.90
31207;DHT22;17834;52.992;8.856;2023-06-14T03:33:36;12.60;99.90
31207;DHT22;17834;52.992;8.856;2023-06-14T03:36:02;12.70;99.90
31207;DHT22;17834;52.992;8.856;2023-06-14T03:38:28;12.60;99.90
31207;DHT22;17834;52.992;8.856;2023-06-14T03:40:53;12.70;99.90
31207;DHT22;17834;52.992;8.856;2023-06-14T03:43:19;12.70;99.90
31207;DHT22;17834;52.992;8.856;2023-06-14T03:45:44;12.70;99.90
31207;DHT22;17834;52.992;8.856;2023-06-14T03:48:10;12.70;99.90
31207;DHT22;17834;52.992;8.856;2023-06-14T03:50:35;12.80;99.90
31207;DHT22;17834;52.992;8.856;2023-06-14T03:53:03;12.80;99.90
31207;DHT22;17834;52.992;8.856;2023-06-14T03:55:29;12.90;99.90
31207;DHT22;17834;52.992;8.856;2023-06-14T03:57:56;12.90;99.90
31207;DHT22;17834;52.992;8.856;2023-06-14T04:00:22;13.00;99.90
31207;DHT22;17834;52.992;8.856;2023-06-14T04:02:47;13.00;99.90
31207;DHT22;17834;52.992;8.856;2023-06-14T04:05:13;13.10;99.90
31207;DHT22;17834;52.992;8.856;2023-06-14T04:07:42;13.10;99.90
31207;DHT22;17834;52.992;8.856;2023-06-14T04:10:11;13.20;99.90
31207;DHT22;17834;52.992;8.856;2023-06-14T04:12:37;13.40;99.90
31207;DHT22;17834;52.992;8.856;2023-06-14T04:15:02;13.50;99.90
31207;DHT22;17834;52.992;8.856;2023-06-14T04:17:28;13.60;99.90
31207;DHT22;17834;52.992;8.856;2023-06-14T04:19:54;13.70;99.90
31207;DHT22;17834;52.992;8.856;2023-06-14T04:22:19;13.80;99.90
31207;DHT22;17834;52.992;8.856;2023-06-14T04:24:45;14.00;99.90
31207;DHT22;17834;52.992;8.856;2023-06-14T04:27:11;14.30;99.90
31207;DHT22;17834;52.992;8.856;2023-06-14T04:29:37;14.50;99.90
31207;DHT22;17834;52.992;8.856;2023-06-14T04:32:02;14.90;99.90
31207;DHT22;17834;52.992;8.856;2023-06-14T04:34:28;15.30;99.90
31207;DHT22;17834;52.992;8.856;2023-06-14T04:36:56;15.90;99.90
31207;DHT22;17834;52.992;8.856;2023-06-14T04:39:22;16.90;99.90
31207;DHT22;17834;52.992;8.856;2023-06-14T04:41:48;17.90;99.90
31207;DHT22;17834;52.992;8.856;2023-06-14T04:44:17;18.90;99.90
31207;DHT22;17834;52.992;8.856;2023-06-14T04:46:43;20.00;99.90
31207;DHT22;17834;52.992;8.856;2023-06-14T04:49:15;21.20;99.90
31207;DHT22;17834;52.992;8.856;2023-06-14T04:51:41;22.30;97.80
31207;DHT22;17834;52.992;8.856;2023-06-14T04:54:08;23.30;96.10
31207;DHT22;17834;52.992;8.856;2023-06-14T04:56:35;24.20;92.20
31207;DHT22;17834;52.992;8.856;2023-06-14T04:59:02;24.30;90.10
31207;DHT22;17834;52.992;8.856;2023-06-14T05:01:30;24.80;87.50
31207;DHT22;17834;52.992;8.856;2023-06-14T05:03:57;24.90;82.60
31207;DHT22;17834;52.992;8.856;2023-06-14T05:06:22;24.20;81.50
31207;DHT22;17834;52.992;8.856;2023-06-14T05:08:48;23.00;84.70
31207;DHT22;17834;52.992;8.856;2023-06-14T05:11:13;21.70;87.60
31207;DHT22;17834;52.992;8.856;2023-06-14T05:13:39;20.80;90.70
31207;DHT22;17834;52.992;8.856;2023-06-14T05:16:06;19.60;92.60
31207;DHT22;17834;52.992;8.856;2023-06-14T05:18:32;18.90;94.60
31207;DHT22;17834;52.992;8.856;2023-06-14T05:20:59;18.50;96.00
31207;DHT22;17834;52.992;8.856;2023-06-14T05:23:25;18.10;97.90
31207;DHT22;17834;52.992;8.856;2023-06-14T05:25:50;18.30;99.30
31207;DHT22;17834;52.992;8.856;2023-06-14T05:28:16;18.60;98.60
31207;DHT22;17834;52.992;8.856;2023-06-14T05:30:41;18.60;98.90
31207;DHT22;17834;52.992;8.856;2023-06-14T05:33:07;18.50;99.70
31207;DHT22;17834;52.992;8.856;2023-06-14T05:35:33;18.90;99.60
31207;DHT22;17834;52.992;8.856;2023-06-14T05:37:58;19.30;98.60
31207;DHT22;17834;52.992;8.856;2023-06-14T05:40:24;19.30;98.00
31207;DHT22;17834;52.992;8.856;2023-06-14T05:42:49;19.60;98.30
31207;DHT22;17834;52.992;8.856;2023-06-14T05:45:15;20.30;98.40
31207;DHT22;17834;52.992;8.856;2023-06-14T05:47:41;21.90;95.90
31207;DHT22;17834;52.992;8.856;2023-06-14T05:50:07;24.10;92.20
31207;DHT22;17834;52.992;8.856;2023-06-14T05:52:34;26.10;83.80
31207;DHT22;17834;52.992;8.856;2023-06-14T05:55:00;28.00;73.50
31207;DHT22;17834;52.992;8.856;2023-06-14T05:57:26;29.10;65.50
31207;DHT22;17834;52.992;8.856;2023-06-14T05:59:52;29.60;62.70
31207;DHT22;17834;52.992;8.856;2023-06-14T06:02:17;30.70;57.80
31207;DHT22;17834;52.992;8.856;2023-06-14T06:04:43;31.30;55.50
31207;DHT22;17834;52.992;8.856;2023-06-14T06:07:08;31.90;52.70
31207;DHT22;17834;52.992;8.856;2023-06-14T06:09:34;32.90;50.50
31207;DHT22;17834;52.992;8.856;2023-06-14T06:11:59;33.20;48.30
31207;DHT22;17834;52.992;8.856;2023-06-14T06:14:25;33.10;47.40
31207;DHT22;17834;52.992;8.856;2023-06-14T06:16:50;33.60;46.60
31207;DHT22;17834;52.992;8.856;2023-06-14T06:19:18;33.80;44.80
31207;DHT22;17834;52.992;8.856;2023-06-14T06:21:43;33.90;44.60
31207;DHT22;17834;52.992;8.856;2023-06-14T06:24:09;33.90;43.90
31207;DHT22;17834;52.992;8.856;2023-06-14T06:26:34;34.40;43.20
31207;DHT22;17834;52.992;8.856;2023-06-14T06:29:00;34.40;42.70
31207;DHT22;17834;52.992;8.856;2023-06-14T06:31:25;34.80;42.50
31207;DHT22;17834;52.992;8.856;2023-06-14T06:33:55;34.50;42.80
31207;DHT22;17834;52.992;8.856;2023-06-14T06:36:21;35.00;42.00
31207;DHT22;17834;52.992;8.856;2023-06-14T06:38:47;35.00;41.10
31207;DHT22;17834;52.992;8.856;2023-06-14T06:41:13;35.00;41.40
31207;DHT22;17834;52.992;8.856;2023-06-14T06:43:38;35.00;40.90
31207;DHT22;17834;52.992;8.856;2023-06-14T06:46:04;35.00;40.60
31207;DHT22;17834;52.992;8.856;2023-06-14T06:48:29;35.30;41.20
31207;DHT22;17834;52.992;8.856;2023-06-14T06:50:55;34.90;40.50
31207;DHT22;17834;52.992;8.856;2023-06-14T06:53:20;35.00;40.80
31207;DHT22;17834;52.992;8.856;2023-06-14T06:55:46;34.30;40.70
31207;DHT22;17834;52.992;8.856;2023-06-14T06:58:12;34.30;40.70
31207;DHT22;17834;52.992;8.856;2023-06-14T07:00:37;34.10;40.00
31207;DHT22;17834;52.992;8.856;2023-06-14T07:03:03;33.50;40.10
31207;DHT22;17834;52.992;8.856;2023-06-14T07:05:29;33.30;40.40
31207;DHT22;17834;52.992;8.856;2023-06-14T07:07:55;33.00;40.50
31207;DHT22;17834;52.992;8.856;2023-06-14T07:10:20;32.20;40.70
31207;DHT22;17834;52.992;8.856;2023-06-14T07:12:46;32.20;41.20
31207;DHT22;17834;52.992;8.856;2023-06-14T07:15:12;32.20;41.10
31207;DHT22;17834;52.992;8.856;2023-06-14T07:17:37;32.70;40.90
31207;DHT22;17834;52.992;8.856;2023-06-14T07:20:04;33.30;40.90
31207;DHT22;17834;52.992;8.856;2023-06-14T07:22:33;33.50;40.80
31207;DHT22;17834;52.992;8.856;2023-06-14T07:24:58;33.90;39.70
31207;DHT22;17834;52.992;8.856;2023-06-14T07:27:24;33.80;38.80
31207;DHT22;17834;52.992;8.856;2023-06-14T07:29:49;33.70;39.60
31207;DHT22;17834;52.992;8.856;2023-06-14T07:32:15;33.30;39.50
31207;DHT22;17834;52.992;8.856;2023-06-14T07:34:40;33.90;38.70
31207;DHT22;17834;52.992;8.856;2023-06-14T07:37:06;34.00;38.40
31207;DHT22;17834;52.992;8.856;2023-06-14T07:39:31;33.90;38.40
31207;DHT22;17834;52.992;8.856;2023-06-14T07:41:57;34.00;39.20
31207;DHT22;17834;52.992;8.856;2023-06-14T07:44:22;34.40;38.80
31207;DHT22;17834;52.992;8.856;2023-06-14T07:46:47;33.60;37.60
31207;DHT22;17834;52.992;8.856;2023-06-14T07:49:15;33.30;38.10
31207;DHT22;17834;52.992;8.856;2023-06-14T07:51:41;33.20;39.10
31207;DHT22;17834;52.992;8.856;2023-06-14T07:54:06;33.10;38.50
31207;DHT22;17834;52.992;8.856;2023-06-14T07:56:34;32.30;38.00
31207;DHT22;17834;52.992;8.856;2023-06-14T07:58:59;30.50;39.90
31207;DHT22;17834;52.992;8.856;2023-06-14T08:01:25;28.00;42.80
31207;DHT22;17834;52.992;8.856;2023-06-14T08:03:51;26.30;46.10
31207;DHT22;17834;52.992;8.856;2023-06-14T08:06:16;25.50;47.20
31207;DHT22;17834;52.992;8.856;2023-06-14T08:08:42;24.80;48.70
31207;DHT22;17834;52.992;8.856;2023-06-14T08:11:07;24.30;48.60
31207;DHT22;17834;52.992;8.856;2023-06-14T08:13:33;24.00;50.10
31207;DHT22;17834;52.992;8.856;2023-06-14T08:15:58;23.80;50.20
31207;DHT22;17834;52.992;8.856;2023-06-14T08:18:25;23.60;50.70
31207;DHT22;17834;52.992;8.856;2023-06-14T08:20:51;23.50;50.60
31207;DHT22;17834;52.992;8.856;2023-06-14T08:23:17;23.40;50.90
31207;DHT22;17834;52.992;8.856;2023-06-14T08:25:44;23.20;52.40
31207;DHT22;17834;52.992;8.856;2023-06-14T08:28:10;23.20;51.40
31207;DHT22;17834;52.992;8.856;2023-06-14T08:30:36;23.00;51.60
31207;DHT22;17834;52.992;8.856;2023-06-14T08:33:01;23.10;52.50
31207;DHT22;17834;52.992;8.856;2023-06-14T08:35:26;23.00;52.60
31207;DHT22;17834;52.992;8.856;2023-06-14T08:37:52;22.90;53.30
31207;DHT22;17834;52.992;8.856;2023-06-14T08:40:21;22.90;52.50
31207;DHT22;17834;52.992;8.856;2023-06-14T08:42:54;22.70;53.40
31207;DHT22;17834;52.992;8.856;2023-06-14T08:45:24;22.60;54.10
31207;DHT22;17834;52.992;8.856;2023-06-14T08:47:50;22.50;53.90
31207;DHT22;17834;52.992;8.856;2023-06-14T08:50:24;22.40;54.80
31207;DHT22;17834;52.992;8.856;2023-06-14T08:52:54;22.40;54.60
31207;DHT22;17834;52.992;8.856;2023-06-14T08:55:21;22.40;54.30
31207;DHT22;17834;52.992;8.856;2023-06-14T08:57:51;22.50;55.80
31207;DHT22;17834;52.992;8.856;2023-06-14T09:00:19;22.50;55.10
31207;DHT22;17834;52.992;8.856;2023-06-14T09:02:46;22.50;55.30
31207;DHT22;17834;52.992;8.856;2023-06-14T09:05:13;22.60;55.20
31207;DHT22;17834;52.992;8.856;2023-06-14T09:07:39;22.60;55.00
31207;DHT22;17834;52.992;8.856;2023-06-14T09:10:11;22.60;54.40
31207;DHT22;17834;52.992;8.856;2023-06-14T09:12:37;22.50;54.70
31207;DHT22;17834;52.992;8.856;2023-06-14T09:15:03;22.50;55.10
31207;DHT22;17834;52.992;8.856;2023-06-14T09:17:40;22.60;55.30
31207;DHT22;17834;52.992;8.856;2023-06-14T09:20:07;22.60;55.90
31207;DHT22;17834;52.992;8.856;2023-06-14T09:22:39;22.70;56.50
31207;DHT22;17834;52.992;8.856;2023-06-14T09:25:05;22.80;56.30
31207;DHT22;17834;52.992;8.856;2023-06-14T09:27:31;22.90;55.30
31207;DHT22;17834;52.992;8.856;2023-06-14T09:29:57;23.00;54.90
31207;DHT22;17834;52.992;8.856;2023-06-14T09:32:23;23.00;55.40
31207;DHT22;17834;52.992;8.856;2023-06-14T09:34:49;23.00;54.50
31207;DHT22;17834;52.992;8.856;2023-06-14T09:37:29;23.10;54.60
31207;DHT22;17834;52.992;8.856;2023-06-14T09:39:55;23.10;54.30
31207;DHT22;17834;52.992;8.856;2023-06-14T09:42:20;23.10;55.20
31207;DHT22;17834;52.992;8.856;2023-06-14T09:44:49;23.20;54.60
31207;DHT22;17834;52.992;8.856;2023-06-14T09:47:15;23.20;54.70
31207;DHT22;17834;52.992;8.856;2023-06-14T09:49:42;23.20;54.80
31207;DHT22;17834;52.992;8.856;2023-06-14T09:52:12;23.30;54.20
31207;DHT22;17834;52.992;8.856;2023-06-14T09:54:43;23.30;53.90
31207;DHT22;17834;52.992;8.856;2023-06-14T09:57:11;23.40;54.90
31207;DHT22;17834;52.992;8.856;2023-06-14T09:59:44;23.40;55.20
31207;DHT22;17834;52.992;8.856;2023-06-14T10:02:18;23.50;54.70
31207;DHT22;17834;52.992;8.856;2023-06-14T10:04:53;23.50;53.80
31207;DHT22;17834;52.992;8.856;2023-06-14T10:07:19;23.50;54.50
31207;DHT22;17834;52.992;8.856;2023-06-14T10:09:46;23.50;53.60
31207;DHT22;17834;52.992;8.856;2023-06-14T10:12:16;23.40;54.10
31207;DHT22;17834;52.992;8.856;2023-06-14T10:14:49;23.50;54.70
31207;DHT22;17834;52.992;8.856;2023-06-14T10:17:39;23.60;54.20
31207;DHT22;17834;52.992;8.856;2023-06-14T10:22:38;23.90;54.80
31207;DHT22;17834;52.992;8.856;2023-06-14T10:25:13;24.00;53.20
31207;DHT22;17834;52.992;8.856;2023-06-14T10:27:50;24.00;53.50
31207;DHT22;17834;52.992;8.856;2023-06-14T10:30:16;23.90;53.70
31207;DHT22;17834;52.992;8.856;2023-06-14T10:33:04;24.10;53.60
31207;DHT22;17834;52.992;8.856;2023-06-14T10:35:30;24.30;53.90
31207;DHT22;17834;52.992;8.856;2023-06-14T10:38:06;24.30;52.30
31207;DHT22;17834;52.992;8.856;2023-06-14T10:40:33;24.20;52.30
31207;DHT22;17834;52.992;8.856;2023-06-14T10:42:59;24.40;53.50
31207;DHT22;17834;52.992;8.856;2023-06-14T10:45:24;24.60;52.70
31207;DHT22;17834;52.992;8.856;2023-06-14T10:47:50;24.80;53.30
31207;DHT22;17834;52.992;8.856;2023-06-14T10:50:19;24.90;51.30
31207;DHT22;17834;52.992;8.856;2023-06-14T10:52:52;25.20;51.90
31207;DHT22;17834;52.992;8.856;2023-06-14T10:55:18;25.50;51.00
31207;DHT22;17834;52.992;8.856;2023-06-14T10:57:50;25.90;51.00
31207;DHT22;17834;52.992;8.856;2023-06-14T11:00:24;26.30;49.70
31207;DHT22;17834;52.992;8.856;2023-06-14T11:05:50;26.70;49.00
31207;DHT22;17834;52.992;8.856;2023-06-14T11:11:16;26.00;51.60
31207;DHT22;17834;52.992;8.856;2023-06-14T11:13:45;25.80;50.30
31207;DHT22;17834;52.992;8.856;2023-06-14T11:16:14;25.60;50.60
31207;DHT22;17834;52.992;8.856;2023-06-14T11:18:41;25.30;50.50
31207;DHT22;17834;52.992;8.856;2023-06-14T11:21:06;25.10;50.70
31207;DHT22;17834;52.992;8.856;2023-06-14T11:23:34;25.30;51.70
31207;DHT22;17834;52.992;8.856;2023-06-14T11:25:59;25.70;51.20
31207;DHT22;17834;52.992;8.856;2023-06-14T11:28:40;25.90;50.70
31207;DHT22;17834;52.992;8.856;2023-06-14T11:31:07;26.00;50.00
31207;DHT22;17834;52.992;8.856;2023-06-14T11:33:33;26.20;50.20
31207;DHT22;17834;52.992;8.856;2023-06-14T11:36:02;26.30;49.40
31207;DHT22;17834;52.992;8.856;2023-06-14T11:38:28;26.50;48.90
31207;DHT22;17834;52.992;8.856;2023-06-14T11:40:53;26.40;48.40
31207;DHT22;17834;52.992;8.856;2023-06-14T11:43:25;26.30;49.60
31207;DHT22;17834;52.992;8.856;2023-06-14T11:45:50;26.20;48.70
31207;DHT22;17834;52.992;8.856;2023-06-14T11:48:16;25.90;48.30
31207;DHT22;17834;52.992;8.856;2023-06-14T11:50:42;25.90;49.10
31207;DHT22;17834;52.992;8.856;2023-06-14T11:53:07;25.80;49.70
31207;DHT22;17834;52.992;8.856;2023-06-14T11:55:38;25.80;49.90
31207;DHT22;17834;52.992;8.856;2023-06-14T11:58:05;25.90;49.90
31207;DHT22;17834;52.992;8.856;2023-06-14T12:00:32;26.00;50.00
31207;DHT22;17834;52.992;8.856;2023-06-14T12:02:57;26.20;49.20
31207;DHT22;17834;52.992;8.856;2023-06-14T12:05:23;26.40;49.30
31207;DHT22;17834;52.992;8.856;2023-06-14T12:07:50;26.70;49.60
31207;DHT22;17834;52.992;8.856;2023-06-14T12:10:18;27.00;48.30
31207;DHT22;17834;52.992;8.856;2023-06-14T12:12:44;27.30;48.30
31207;DHT22;17834;52.992;8.856;2023-06-14T12:15:10;27.40;47.30
31207;DHT22;17834;52.992;8.856;2023-06-14T12:17:39;27.60;47.70
31207;DHT22;17834;52.992;8.856;2023-06-14T12:20:11;28.00;47.60
31207;DHT22;17834;52.992;8.856;2023-06-14T12:22:51;28.20;46.90
31207;DHT22;17834;52.992;8.856;2023-06-14T12:25:36;28.30;46.10
31207;DHT22;17834;52.992;8.856;2023-06-14T12:28:09;28.30;45.70
31207;DHT22;17834;52.992;8.856;2023-06-14T12:30:36;27.90;45.70
31207;DHT22;17834;52.992;8.856;2023-06-14T12:33:05;28.00;46.90
31207;DHT22;17834;52.992;8.856;2023-06-14T12:35:31;27.70;46.00
31207;DHT22;17834;52.992;8.856;2023-06-14T12:37:57;27.50;46.90
31207;DHT22;17834;52.992;8.856;2023-06-14T12:40:22;27.20;46.70
31207;DHT22;17834;52.992;8.856;2023-06-14T12:42:48;26.90;47.80
31207;DHT22;17834;52.992;8.856;2023-06-14T12:45:14;26.80;47.70
31207;DHT22;17834;52.992;8.856;2023-06-14T12:47:40;26.70;47.90
31207;DHT22;17834;52.992;8.856;2023-06-14T12:50:06;26.50;48.30
31207;DHT22;17834;52.992;8.856;2023-06-14T12:52:32;25.90;49.00
31207;DHT22;17834;52.992;8.856;2023-06-14T12:55:01;25.40;50.00
31207;DHT22;17834;52.992;8.856;2023-06-14T12:57:27;25.00;50.40
31207;DHT22;17834;52.992;8.856;2023-06-14T12:59:52;25.00;51.20
31207;DHT22;17834;52.992;8.856;2023-06-14T13:02:19;25.00;50.90
31207;DHT22;17834;52.992;8.856;2023-06-14T13:04:45;25.10;50.50
31207;DHT22;17834;52.992;8.856;2023-06-14T13:07:11;25.30;51.60
31207;DHT22;17834;52.992;8.856;2023-06-14T13:09:37;25.50;50.60
31207;DHT22;17834;52.992;8.856;2023-06-14T13:12:03;25.90;50.50
31207;DHT22;17834;52.992;8.856;2023-06-14T13:14:29;26.40;49.20
31207;DHT22;17834;52.992;8.856;2023-06-14T13:16:54;26.90;49.80
31207;DHT22;17834;52.992;8.856;2023-06-14T13:19:20;27.20;48.40
31207;DHT22;17834;52.992;8.856;2023-06-14T13:21:46;27.30;46.90
31207;DHT22;17834;52.992;8.856;2023-06-14T13:24:11;27.40;46.10
31207;DHT22;17834;52.992;8.856;2023-06-14T13:26:37;27.20;46.40
31207;DHT22;17834;52.992;8.856;2023-06-14T13:29:02;27.30;47.20
31207;DHT22;17834;52.992;8.856;2023-06-14T13:31:29;26.90;46.50
31207;DHT22;17834;52.992;8.856;2023-06-14T13:33:54;27.00;47.90
31207;DHT22;17834;52.992;8.856;2023-06-14T13:36:20;27.10;47.90
31207;DHT22;17834;52.992;8.856;2023-06-14T13:38:45;27.30;47.40
31207;DHT22;17834;52.992;8.856;2023-06-14T13:41:11;27.50;46.00
31207;DHT22;17834;52.992;8.856;2023-06-14T13:43:36;27.70;47.00
31207;DHT22;17834;52.992;8.856;2023-06-14T13:46:02;27.90;46.10
31207;DHT22;17834;52.992;8.856;2023-06-14T13:48:27;27.90;46.50
31207;DHT22;17834;52.992;8.856;2023-06-14T13:50:53;27.80;46.40
31207;DHT22;17834;52.992;8.856;2023-06-14T13:53:18;27.80;46.00
31207;DHT22;17834;52.992;8.856;2023-06-14T13:55:44;27.60;46.40
31207;DHT22;17834;52.992;8.856;2023-06-14T13:58:09;27.60;46.80
31207;DHT22;17834;52.992;8.856;2023-06-14T14:00:35;27.70;46.50
31207;DHT22;17834;52.992;8.856;2023-06-14T14:03:05;27.70;46.40
31207;DHT22;17834;52.992;8.856;2023-06-14T14:05:31;27.70;46.00
31207;DHT22;17834;52.992;8.856;2023-06-14T14:07:56;27.60;46.20
31207;DHT22;17834;52.992;8.856;2023-06-14T14:10:23;27.70;47.50
31207;DHT22;17834;52.992;8.856;2023-06-14T14:12:50;27.50;46.30
31207;DHT22;17834;52.992;8.856;2023-06-14T14:15:16;27.30;47.30
31207;DHT22;17834;52.992;8.856;2023-06-14T14:17:42;27.10;47.20
31207;DHT22;17834;52.992;8.856;2023-06-14T14:20:08;27.00;47.60
31207;DHT22;17834;52.992;8.856;2023-06-14T14:22:33;27.00;47.60
31207;DHT22;17834;52.992;8.856;2023-06-14T14:24:59;27.00;46.50
31207;DHT22;17834;52.992;8.856;2023-06-14T14:27:24;26.90;46.60
31207;DHT22;17834;52.992;8.856;2023-06-14T14:29:50;27.00;46.10
31207;DHT22;17834;52.992;8.856;2023-06-14T14:32:15;27.10;46.30
31207;DHT22;17834;52.992;8.856;2023-06-14T14:34:41;27.00;46.30
31207;DHT22;17834;52.992;8.856;2023-06-14T14:37:06;26.80;47.90
31207;DHT22;17834;52.992;8.856;2023-06-14T14:39:32;26.70;48.00
31207;DHT22;17834;52.992;8.856;2023-06-14T14:41:58;26.40;47.20
31207;DHT22;17834;52.992;8.856;2023-06-14T14:44:23;26.30;48.20
31207;DHT22;17834;52.992;8.856;2023-06-14T14:46:48;26.10;48.30
31207;DHT22;17834;52.992;8.856;2023-06-14T14:49:14;25.90;48.20
31207;DHT22;17834;52.992;8.856;2023-06-14T14:51:40;25.60;48.40
31207;DHT22;17834;52.992;8.856;2023-06-14T14:54:06;25.60;49.00
31207;DHT22;17834;52.992;8.856;2023-06-14T14:56:31;25.60;49.50
31207;DHT22;17834;52.992;8.856;2023-06-14T14:58:57;25.70;49.90
31207;DHT22;17834;52.992;8.856;2023-06-14T15:01:22;25.70;50.10
31207;DHT22;17834;52.992;8.856;2023-06-14T15:03:48;25.80;50.00
31207;DHT22;17834;52.992;8.856;2023-06-14T15:06:13;25.90;50.10
31207;DHT22;17834;52.992;8.856;2023-06-14T15:08:39;25.80;49.00
31207;DHT22;17834;52.992;8.856;2023-06-14T15:11:04;25.90;49.00
31207;DHT22;17834;52.992;8.856;2023-06-14T15:13:30;25.90;48.90
31207;DHT22;17834;52.992;8.856;2023-06-14T15:15:55;25.70;48.40
31207;DHT22;17834;52.992;8.856;2023-06-14T15:18:21;25.60;48.40
31207;DHT22;17834;52.992;8.856;2023-06-14T15:20:47;25.50;49.00
31207;DHT22;17834;52.992;8.856;2023-06-14T15:23:13;25.50;49.20
31207;DHT22;17834;52.992;8.856;2023-06-14T15:25:44;25.50;49.40
31207;DHT22;17834;52.992;8.856;2023-06-14T15:28:10;25.40;49.70
31207;DHT22;17834;52.992;8.856;2023-06-14T15:30:35;25.40;49.50
31207;DHT22;17834;52.992;8.856;2023-06-14T15:33:01;25.30;49.40
31207;DHT22;17834;52.992;8.856;2023-06-14T15:35:26;25.20;49.90